Lone Star, South Carolina
Current Conditions -  °F | °C
As of 10:53 AM on Wednesday 22 Oct 2014 (Local Time) from KOGB Reporting Station
Clear Clear  
Wind Chill: 61°   Ceiling: Unl
Heat Index: 61°   Visibility: 10mi
Dew Point: 39°   Wind: 10mph
Humidity: 44%   Direction: 40°NE
Pressure: 30.07"   Gusts: NA
Location:  33.5645°N, 80.6572°W
Report Text: KOGB 221453Z AUTO 04009KT 10SM CLR 16/04 A3007 RMK AO2 SLP183 T01610039 50011
Loading
Personal Weather Stations






























Interactive Weather Map
Tropical Storm Tracking
New forecast layout! Learn more

10-Day Weather Forecast

Advertisements
Track Severe Weather on mobile